This is the latest recevied weather packets stored in our database for station/object EA3IBE-10. If no packets are shown the sender has not sent any weather packets the latest 10 day(s).
| Time | Temp. | Humidity | Pressure | Rain* | Wind** | Luminosity | Snow |
|---|---|---|---|---|---|---|---|
| 1778117381 | 11.11° C | 100% | 1011.6 hPa | - | - | - | - |
| 1778114981 | 11.11° C | 100% | 1011.8 hPa | - | - | - | - |
| 1778112581 | 11.11° C | 100% | 1012.1 hPa | - | - | - | - |
| 1778110181 | 11.11° C | 100% | 1012.1 hPa | - | - | - | - |
| 1778107780 | 11.67° C | 100% | 1012.1 hPa | - | - | - | - |
| 1778105380 | 11.67° C | 100% | 1012.2 hPa | - | - | - | - |
| 1778102980 | 12.22° C | 100% | 1011.9 hPa | - | - | - | - |
| 1778100592 | 12.78° C | 100% | 1011.8 hPa | - | - | - | - |
| 1778100580 | 12.78° C | 100% | 1011.8 hPa | - | - | - | - |
| 1778098180 | 13.89° C | 100% | 1011.2 hPa | - | - | - | - |
| 1778095780 | 15° C | 100% | 1010.6 hPa | - | - | - | - |
| 1778093380 | 16.11° C | 100% | 1010.2 hPa | - | - | - | - |
| 1778090992 | 18.33° C | 69% | 1009.6 hPa | - | - | - | - |
| 1778090980 | 18.33° C | 69% | 1009.6 hPa | - | - | - | - |
| 1778088580 | 20.56° C | 46% | 1009.3 hPa | - | - | - | - |
| 1778086180 | 20° C | 48% | 1009.1 hPa | - | - | - | - |
| 1778083780 | 21.11° C | 44% | 1009 hPa | - | - | - | - |
| 1778081379 | 21.67° C | 44% | 1008.9 hPa | - | - | - | - |
| 1778078979 | 22.78° C | 39% | 1009 hPa | - | - | - | - |
| 1778076579 | 24.44° C | 37% | 1009.2 hPa | - | - | - | - |
| 1778074179 | 22.78° C | 38% | 1009.5 hPa | - | - | - | - |
| 1778071779 | 22.22° C | 38% | 1009.7 hPa | - | - | - | - |
| 1778069379 | 25° C | 35% | 1009.8 hPa | - | - | - | - |
| 1778066979 | 21.67° C | 41% | 1010.1 hPa | - | - | - | - |
| 1778064579 | 28.33° C | 33% | 1010.5 hPa | - | - | - | - |
* Rain since midnight (hover to see other rain measurements)
** Current wind speed in m/s (hover to see current wind gust speed)